sensor_id;sensor_type;location;lat;lon;timestamp;P1;durP1;ratioP1;P2;durP2;ratioP2
23015;SDS011;11674;52.428;13.584;2022-12-18T00:02:51;64.97;;;20.48;;
23015;SDS011;11674;52.428;13.584;2022-12-18T00:07:58;64.53;;;20.92;;
23015;SDS011;11674;52.428;13.584;2022-12-18T00:13:05;62.60;;;20.35;;
23015;SDS011;11674;52.428;13.584;2022-12-18T00:18:12;56.83;;;18.35;;
23015;SDS011;11674;52.428;13.584;2022-12-18T00:23:29;54.25;;;15.98;;
23015;SDS011;11674;52.428;13.584;2022-12-18T00:28:38;42.65;;;15.48;;
23015;SDS011;11674;52.428;13.584;2022-12-18T00:33:46;44.95;;;16.60;;
23015;SDS011;11674;52.428;13.584;2022-12-18T00:38:58;46.00;;;16.10;;
23015;SDS011;11674;52.428;13.584;2022-12-18T00:44:07;49.25;;;16.02;;
23015;SDS011;11674;52.428;13.584;2022-12-18T00:49:21;49.35;;;14.70;;
23015;SDS011;11674;52.428;13.584;2022-12-18T00:54:28;41.05;;;14.20;;
23015;SDS011;11674;52.428;13.584;2022-12-18T00:59:35;37.45;;;14.98;;
23015;SDS011;11674;52.428;13.584;2022-12-18T01:04:42;47.20;;;16.63;;
23015;SDS011;11674;52.428;13.584;2022-12-18T01:09:53;34.08;;;13.45;;
23015;SDS011;11674;52.428;13.584;2022-12-18T01:15:01;35.38;;;12.98;;
23015;SDS011;11674;52.428;13.584;2022-12-18T01:20:15;38.92;;;13.60;;
23015;SDS011;11674;52.428;13.584;2022-12-18T01:25:22;42.08;;;14.13;;
23015;SDS011;11674;52.428;13.584;2022-12-18T01:30:29;40.55;;;14.30;;
23015;SDS011;11674;52.428;13.584;2022-12-18T01:35:40;39.05;;;14.45;;
23015;SDS011;11674;52.428;13.584;2022-12-18T01:40:56;41.40;;;13.82;;
23015;SDS011;11674;52.428;13.584;2022-12-18T01:46:13;44.53;;;14.40;;
23015;SDS011;11674;52.428;13.584;2022-12-18T01:51:23;40.53;;;14.27;;
23015;SDS011;11674;52.428;13.584;2022-12-18T01:56:32;44.08;;;14.68;;
23015;SDS011;11674;52.428;13.584;2022-12-18T02:01:39;48.30;;;15.25;;
23015;SDS011;11674;52.428;13.584;2022-12-18T02:06:46;44.03;;;15.02;;
23015;SDS011;11674;52.428;13.584;2022-12-18T02:12:13;47.28;;;15.18;;
23015;SDS011;11674;52.428;13.584;2022-12-18T02:17:31;44.30;;;14.73;;
23015;SDS011;11674;52.428;13.584;2022-12-18T02:28:19;42.80;;;15.85;;
23015;SDS011;11674;52.428;13.584;2022-12-18T02:33:34;46.35;;;15.07;;
23015;SDS011;11674;52.428;13.584;2022-12-18T02:38:43;40.80;;;14.95;;
23015;SDS011;11674;52.428;13.584;2022-12-18T02:43:56;42.92;;;15.63;;
23015;SDS011;11674;52.428;13.584;2022-12-18T03:00:16;39.53;;;13.70;;
23015;SDS011;11674;52.428;13.584;2022-12-18T03:05:41;41.40;;;14.68;;
23015;SDS011;11674;52.428;13.584;2022-12-18T03:11:05;41.47;;;14.35;;
23015;SDS011;11674;52.428;13.584;2022-12-18T03:16:26;39.28;;;13.02;;
23015;SDS011;11674;52.428;13.584;2022-12-18T03:21:43;35.22;;;11.95;;
23015;SDS011;11674;52.428;13.584;2022-12-18T03:27:00;37.10;;;12.73;;
23015;SDS011;11674;52.428;13.584;2022-12-18T03:32:11;39.05;;;13.02;;
23015;SDS011;11674;52.428;13.584;2022-12-18T03:37:25;38.75;;;13.55;;
23015;SDS011;11674;52.428;13.584;2022-12-18T03:53:35;36.40;;;13.75;;
23015;SDS011;11674;52.428;13.584;2022-12-18T03:59:09;39.72;;;12.73;;
23015;SDS011;11674;52.428;13.584;2022-12-18T04:09:28;35.92;;;12.65;;
23015;SDS011;11674;52.428;13.584;2022-12-18T04:14:40;42.70;;;11.82;;
23015;SDS011;11674;52.428;13.584;2022-12-18T04:19:47;35.03;;;12.63;;
23015;SDS011;11674;52.428;13.584;2022-12-18T04:24:54;41.53;;;13.15;;
23015;SDS011;11674;52.428;13.584;2022-12-18T04:30:09;22.70;;;9.73;;
23015;SDS011;11674;52.428;13.584;2022-12-18T04:35:17;41.33;;;13.25;;
23015;SDS011;11674;52.428;13.584;2022-12-18T04:40:23;44.20;;;13.73;;
23015;SDS011;11674;52.428;13.584;2022-12-18T04:45:31;36.45;;;12.90;;
23015;SDS011;11674;52.428;13.584;2022-12-18T04:50:38;35.88;;;12.48;;
23015;SDS011;11674;52.428;13.584;2022-12-18T04:55:45;36.40;;;12.30;;
23015;SDS011;11674;52.428;13.584;2022-12-18T05:00:52;41.35;;;14.02;;
23015;SDS011;11674;52.428;13.584;2022-12-18T05:05:59;38.47;;;12.25;;
23015;SDS011;11674;52.428;13.584;2022-12-18T05:11:08;39.20;;;14.25;;
23015;SDS011;11674;52.428;13.584;2022-12-18T05:16:16;39.43;;;13.30;;
23015;SDS011;11674;52.428;13.584;2022-12-18T05:21:23;44.97;;;13.20;;
23015;SDS011;11674;52.428;13.584;2022-12-18T05:26:30;47.90;;;13.43;;
23015;SDS011;11674;52.428;13.584;2022-12-18T05:31:38;46.45;;;14.68;;
23015;SDS011;11674;52.428;13.584;2022-12-18T05:36:45;55.08;;;16.23;;
23015;SDS011;11674;52.428;13.584;2022-12-18T05:41:52;51.80;;;15.27;;
23015;SDS011;11674;52.428;13.584;2022-12-18T05:46:59;49.13;;;14.82;;
23015;SDS011;11674;52.428;13.584;2022-12-18T05:52:06;49.17;;;15.13;;
23015;SDS011;11674;52.428;13.584;2022-12-18T05:57:13;42.95;;;15.35;;
23015;SDS011;11674;52.428;13.584;2022-12-18T06:02:20;45.92;;;14.18;;
23015;SDS011;11674;52.428;13.584;2022-12-18T06:07:27;53.70;;;15.48;;
23015;SDS011;11674;52.428;13.584;2022-12-18T06:12:34;50.00;;;15.90;;
23015;SDS011;11674;52.428;13.584;2022-12-18T06:17:41;54.55;;;17.25;;
23015;SDS011;11674;52.428;13.584;2022-12-18T06:22:48;50.42;;;14.70;;
23015;SDS011;11674;52.428;13.584;2022-12-18T06:28:10;45.85;;;15.88;;
23015;SDS011;11674;52.428;13.584;2022-12-18T06:33:17;49.10;;;16.45;;
23015;SDS011;11674;52.428;13.584;2022-12-18T06:38:24;48.22;;;14.77;;
23015;SDS011;11674;52.428;13.584;2022-12-18T06:43:31;43.90;;;14.88;;
23015;SDS011;11674;52.428;13.584;2022-12-18T06:48:38;34.25;;;10.90;;
23015;SDS011;11674;52.428;13.584;2022-12-18T06:53:45;38.53;;;14.50;;
23015;SDS011;11674;52.428;13.584;2022-12-18T06:58:52;42.35;;;15.18;;
23015;SDS011;11674;52.428;13.584;2022-12-18T07:03:59;41.83;;;14.98;;
23015;SDS011;11674;52.428;13.584;2022-12-18T07:09:07;38.33;;;12.73;;
23015;SDS011;11674;52.428;13.584;2022-12-18T07:14:14;41.47;;;13.07;;
23015;SDS011;11674;52.428;13.584;2022-12-18T07:19:21;34.55;;;13.40;;
23015;SDS011;11674;52.428;13.584;2022-12-18T07:24:30;38.58;;;13.73;;
23015;SDS011;11674;52.428;13.584;2022-12-18T07:29:42;37.70;;;13.23;;
23015;SDS011;11674;52.428;13.584;2022-12-18T07:34:48;33.97;;;12.88;;
23015;SDS011;11674;52.428;13.584;2022-12-18T07:39:58;40.73;;;12.90;;
23015;SDS011;11674;52.428;13.584;2022-12-18T07:45:06;44.00;;;13.38;;
23015;SDS011;11674;52.428;13.584;2022-12-18T07:50:12;33.63;;;12.38;;
23015;SDS011;11674;52.428;13.584;2022-12-18T07:55:19;32.70;;;13.23;;
23015;SDS011;11674;52.428;13.584;2022-12-18T08:00:26;35.30;;;12.38;;
23015;SDS011;11674;52.428;13.584;2022-12-18T08:05:33;34.15;;;12.00;;
23015;SDS011;11674;52.428;13.584;2022-12-18T08:10:40;28.98;;;12.07;;
23015;SDS011;11674;52.428;13.584;2022-12-18T08:15:57;39.35;;;13.93;;
23015;SDS011;11674;52.428;13.584;2022-12-18T08:21:22;33.65;;;12.82;;
23015;SDS011;11674;52.428;13.584;2022-12-18T08:26:31;46.63;;;13.87;;
23015;SDS011;11674;52.428;13.584;2022-12-18T08:31:38;40.38;;;13.60;;
23015;SDS011;11674;52.428;13.584;2022-12-18T08:36:45;33.97;;;13.40;;
23015;SDS011;11674;52.428;13.584;2022-12-18T08:41:52;39.85;;;13.82;;
23015;SDS011;11674;52.428;13.584;2022-12-18T08:46:59;42.67;;;13.85;;
23015;SDS011;11674;52.428;13.584;2022-12-18T08:52:06;42.08;;;13.65;;
23015;SDS011;11674;52.428;13.584;2022-12-18T08:57:13;51.58;;;14.88;;
23015;SDS011;11674;52.428;13.584;2022-12-18T09:02:20;40.33;;;13.93;;
23015;SDS011;11674;52.428;13.584;2022-12-18T09:07:27;39.38;;;14.75;;
23015;SDS011;11674;52.428;13.584;2022-12-18T09:12:34;53.33;;;16.33;;
23015;SDS011;11674;52.428;13.584;2022-12-18T09:17:41;51.30;;;15.15;;
23015;SDS011;11674;52.428;13.584;2022-12-18T09:22:48;39.58;;;13.45;;
23015;SDS011;11674;52.428;13.584;2022-12-18T09:27:55;46.63;;;15.13;;
23015;SDS011;11674;52.428;13.584;2022-12-18T09:33:02;49.13;;;16.55;;
23015;SDS011;11674;52.428;13.584;2022-12-18T09:38:11;45.00;;;15.15;;
23015;SDS011;11674;52.428;13.584;2022-12-18T09:48:52;46.53;;;15.45;;
23015;SDS011;11674;52.428;13.584;2022-12-18T09:54:07;51.97;;;16.30;;
23015;SDS011;11674;52.428;13.584;2022-12-18T09:59:29;49.92;;;15.52;;
23015;SDS011;11674;52.428;13.584;2022-12-18T10:04:41;50.70;;;15.45;;
23015;SDS011;11674;52.428;13.584;2022-12-18T10:09:58;43.78;;;13.73;;
23015;SDS011;11674;52.428;13.584;2022-12-18T10:20:58;37.40;;;13.15;;
23015;SDS011;11674;52.428;13.584;2022-12-18T10:26:15;42.45;;;13.05;;
23015;SDS011;11674;52.428;13.584;2022-12-18T10:31:23;43.50;;;14.65;;
23015;SDS011;11674;52.428;13.584;2022-12-18T10:36:30;38.90;;;12.90;;
23015;SDS011;11674;52.428;13.584;2022-12-18T10:41:37;44.10;;;14.38;;
23015;SDS011;11674;52.428;13.584;2022-12-18T10:46:45;38.20;;;13.38;;
23015;SDS011;11674;52.428;13.584;2022-12-18T10:52:07;34.47;;;12.43;;
23015;SDS011;11674;52.428;13.584;2022-12-18T10:57:40;28.35;;;11.60;;
23015;SDS011;11674;52.428;13.584;2022-12-18T11:02:46;34.58;;;12.38;;
23015;SDS011;11674;52.428;13.584;2022-12-18T11:07:53;34.75;;;12.77;;
23015;SDS011;11674;52.428;13.584;2022-12-18T11:13:20;34.40;;;12.82;;
23015;SDS011;11674;52.428;13.584;2022-12-18T11:18:30;41.40;;;12.20;;
23015;SDS011;11674;52.428;13.584;2022-12-18T11:23:49;36.67;;;12.60;;
23015;SDS011;11674;52.428;13.584;2022-12-18T11:29:10;34.05;;;12.10;;
23015;SDS011;11674;52.428;13.584;2022-12-18T11:34:26;35.25;;;11.80;;
23015;SDS011;11674;52.428;13.584;2022-12-18T11:39:37;36.70;;;11.93;;
23015;SDS011;11674;52.428;13.584;2022-12-18T11:50:28;30.17;;;11.10;;
23015;SDS011;11674;52.428;13.584;2022-12-18T11:55:58;34.47;;;10.25;;
23015;SDS011;11674;52.428;13.584;2022-12-18T12:12:58;34.25;;;11.75;;
23015;SDS011;11674;52.428;13.584;2022-12-18T12:34:14;27.60;;;10.90;;
23015;SDS011;11674;52.428;13.584;2022-12-18T12:39:30;34.28;;;12.20;;
23015;SDS011;11674;52.428;13.584;2022-12-18T12:44:42;32.38;;;11.90;;
23015;SDS011;11674;52.428;13.584;2022-12-18T12:49:52;28.65;;;13.60;;
23015;SDS011;11674;52.428;13.584;2022-12-18T12:55:02;33.17;;;12.65;;
23015;SDS011;11674;52.428;13.584;2022-12-18T13:05:28;37.20;;;14.40;;
23015;SDS011;11674;52.428;13.584;2022-12-18T13:10:38;30.73;;;14.05;;
23015;SDS011;11674;52.428;13.584;2022-12-18T13:16:03;31.42;;;14.38;;
23015;SDS011;11674;52.428;13.584;2022-12-18T13:21:22;31.27;;;13.05;;
23015;SDS011;11674;52.428;13.584;2022-12-18T13:26:33;30.23;;;13.98;;
23015;SDS011;11674;52.428;13.584;2022-12-18T13:36:48;35.15;;;14.35;;
23015;SDS011;11674;52.428;13.584;2022-12-18T13:42:41;29.25;;;12.63;;
23015;SDS011;11674;52.428;13.584;2022-12-18T13:47:27;31.92;;;11.90;;
23015;SDS011;11674;52.428;13.584;2022-12-18T13:52:38;28.83;;;12.98;;
23015;SDS011;11674;52.428;13.584;2022-12-18T13:57:45;27.77;;;12.80;;
23015;SDS011;11674;52.428;13.584;2022-12-18T14:02:52;24.90;;;10.73;;
23015;SDS011;11674;52.428;13.584;2022-12-18T14:08:04;21.52;;;11.30;;
23015;SDS011;11674;52.428;13.584;2022-12-18T14:13:47;29.00;;;12.98;;
23015;SDS011;11674;52.428;13.584;2022-12-18T14:18:52;30.30;;;12.68;;
23015;SDS011;11674;52.428;13.584;2022-12-18T14:29:27;24.98;;;11.15;;
23015;SDS011;11674;52.428;13.584;2022-12-18T14:34:35;25.38;;;11.73;;
23015;SDS011;11674;52.428;13.584;2022-12-18T14:39:58;27.00;;;12.70;;
23015;SDS011;11674;52.428;13.584;2022-12-18T14:50:39;28.50;;;12.75;;
23015;SDS011;11674;52.428;13.584;2022-12-18T14:55:47;26.42;;;11.57;;
23015;SDS011;11674;52.428;13.584;2022-12-18T15:00:54;26.73;;;13.05;;
23015;SDS011;11674;52.428;13.584;2022-12-18T15:06:15;23.88;;;10.35;;
23015;SDS011;11674;52.428;13.584;2022-12-18T15:11:33;23.38;;;10.32;;
23015;SDS011;11674;52.428;13.584;2022-12-18T15:16:52;21.33;;;10.27;;
23015;SDS011;11674;52.428;13.584;2022-12-18T15:22:00;23.85;;;11.30;;
23015;SDS011;11674;52.428;13.584;2022-12-18T15:27:19;21.45;;;10.73;;
23015;SDS011;11674;52.428;13.584;2022-12-18T15:32:27;27.93;;;11.33;;
23015;SDS011;11674;52.428;13.584;2022-12-18T15:37:34;24.52;;;10.88;;
23015;SDS011;11674;52.428;13.584;2022-12-18T15:42:42;25.30;;;12.32;;
23015;SDS011;11674;52.428;13.584;2022-12-18T15:47:49;28.30;;;10.63;;
23015;SDS011;11674;52.428;13.584;2022-12-18T15:52:56;25.45;;;12.60;;
23015;SDS011;11674;52.428;13.584;2022-12-18T15:58:04;29.80;;;12.50;;
23015;SDS011;11674;52.428;13.584;2022-12-18T16:03:11;28.02;;;13.20;;
23015;SDS011;11674;52.428;13.584;2022-12-18T16:08:19;28.90;;;12.00;;
23015;SDS011;11674;52.428;13.584;2022-12-18T16:13:25;29.05;;;11.98;;
23015;SDS011;11674;52.428;13.584;2022-12-18T16:18:32;27.33;;;13.07;;
23015;SDS011;11674;52.428;13.584;2022-12-18T16:23:39;23.55;;;11.48;;
23015;SDS011;11674;52.428;13.584;2022-12-18T16:28:46;25.08;;;12.70;;
23015;SDS011;11674;52.428;13.584;2022-12-18T16:39:21;26.58;;;11.27;;
23015;SDS011;11674;52.428;13.584;2022-12-18T16:44:27;28.92;;;12.43;;
23015;SDS011;11674;52.428;13.584;2022-12-18T16:49:34;25.67;;;11.65;;
23015;SDS011;11674;52.428;13.584;2022-12-18T16:54:41;33.38;;;13.60;;
23015;SDS011;11674;52.428;13.584;2022-12-18T16:59:48;31.08;;;13.30;;
23015;SDS011;11674;52.428;13.584;2022-12-18T17:04:56;35.03;;;13.07;;
23015;SDS011;11674;52.428;13.584;2022-12-18T17:10:04;25.85;;;11.52;;
23015;SDS011;11674;52.428;13.584;2022-12-18T17:15:10;29.58;;;13.35;;
23015;SDS011;11674;52.428;13.584;2022-12-18T17:20:17;28.55;;;12.70;;
23015;SDS011;11674;52.428;13.584;2022-12-18T17:25:25;32.45;;;13.45;;
23015;SDS011;11674;52.428;13.584;2022-12-18T17:30:32;29.75;;;12.35;;
23015;SDS011;11674;52.428;13.584;2022-12-18T17:35:40;33.33;;;12.73;;
23015;SDS011;11674;52.428;13.584;2022-12-18T17:40:46;32.13;;;13.50;;
23015;SDS011;11674;52.428;13.584;2022-12-18T17:45:54;34.25;;;12.98;;
23015;SDS011;11674;52.428;13.584;2022-12-18T17:51:01;30.67;;;13.30;;
23015;SDS011;11674;52.428;13.584;2022-12-18T17:56:11;39.25;;;15.80;;
23015;SDS011;11674;52.428;13.584;2022-12-18T18:01:20;39.37;;;14.87;;
23015;SDS011;11674;52.428;13.584;2022-12-18T18:06:29;30.33;;;14.23;;
23015;SDS011;11674;52.428;13.584;2022-12-18T18:11:35;36.35;;;14.85;;
23015;SDS011;11674;52.428;13.584;2022-12-18T18:16:44;37.95;;;15.65;;
23015;SDS011;11674;52.428;13.584;2022-12-18T18:21:52;29.97;;;11.93;;
23015;SDS011;11674;52.428;13.584;2022-12-18T18:26:59;34.58;;;15.27;;
23015;SDS011;11674;52.428;13.584;2022-12-18T18:32:06;40.05;;;16.70;;
23015;SDS011;11674;52.428;13.584;2022-12-18T18:37:14;36.67;;;16.15;;
23015;SDS011;11674;52.428;13.584;2022-12-18T18:42:20;36.15;;;15.63;;
23015;SDS011;11674;52.428;13.584;2022-12-18T18:47:28;41.00;;;16.42;;
23015;SDS011;11674;52.428;13.584;2022-12-18T18:52:35;45.53;;;20.67;;
23015;SDS011;11674;52.428;13.584;2022-12-18T18:57:42;43.78;;;16.05;;
23015;SDS011;11674;52.428;13.584;2022-12-18T19:02:49;37.38;;;15.13;;
23015;SDS011;11674;52.428;13.584;2022-12-18T19:07:56;39.63;;;15.02;;
23015;SDS011;11674;52.428;13.584;2022-12-18T19:13:03;35.65;;;12.68;;
23015;SDS011;11674;52.428;13.584;2022-12-18T19:18:10;42.42;;;16.45;;
23015;SDS011;11674;52.428;13.584;2022-12-18T19:23:16;46.65;;;17.42;;
23015;SDS011;11674;52.428;13.584;2022-12-18T19:28:24;39.58;;;15.85;;
23015;SDS011;11674;52.428;13.584;2022-12-18T19:33:32;43.78;;;17.17;;
23015;SDS011;11674;52.428;13.584;2022-12-18T19:38:41;42.33;;;16.47;;
23015;SDS011;11674;52.428;13.584;2022-12-18T19:43:48;44.13;;;16.15;;
23015;SDS011;11674;52.428;13.584;2022-12-18T19:48:57;37.42;;;15.35;;
23015;SDS011;11674;52.428;13.584;2022-12-18T19:54:05;44.20;;;16.95;;
23015;SDS011;11674;52.428;13.584;2022-12-18T19:59:12;39.88;;;15.00;;
23015;SDS011;11674;52.428;13.584;2022-12-18T20:04:19;39.35;;;17.13;;
23015;SDS011;11674;52.428;13.584;2022-12-18T20:09:26;40.78;;;16.17;;
23015;SDS011;11674;52.428;13.584;2022-12-18T20:19:40;41.90;;;16.77;;
23015;SDS011;11674;52.428;13.584;2022-12-18T20:24:47;41.05;;;16.30;;
23015;SDS011;11674;52.428;13.584;2022-12-18T20:29:54;38.83;;;16.48;;
23015;SDS011;11674;52.428;13.584;2022-12-18T20:35:07;39.25;;;15.25;;
23015;SDS011;11674;52.428;13.584;2022-12-18T20:40:17;35.90;;;12.03;;
23015;SDS011;11674;52.428;13.584;2022-12-18T20:45:26;38.85;;;15.30;;
23015;SDS011;11674;52.428;13.584;2022-12-18T20:50:34;44.65;;;16.67;;
23015;SDS011;11674;52.428;13.584;2022-12-18T20:55:41;44.15;;;16.80;;
23015;SDS011;11674;52.428;13.584;2022-12-18T21:00:48;40.70;;;15.63;;
23015;SDS011;11674;52.428;13.584;2022-12-18T21:05:55;38.63;;;15.52;;
23015;SDS011;11674;52.428;13.584;2022-12-18T21:11:15;41.80;;;16.13;;
23015;SDS011;11674;52.428;13.584;2022-12-18T21:16:25;40.67;;;14.98;;
23015;SDS011;11674;52.428;13.584;2022-12-18T21:21:32;42.10;;;16.15;;
23015;SDS011;11674;52.428;13.584;2022-12-18T21:26:39;39.83;;;16.52;;
23015;SDS011;11674;52.428;13.584;2022-12-18T21:31:46;39.40;;;16.50;;
23015;SDS011;11674;52.428;13.584;2022-12-18T21:36:57;41.65;;;16.20;;
23015;SDS011;11674;52.428;13.584;2022-12-18T21:42:06;36.15;;;15.80;;
23015;SDS011;11674;52.428;13.584;2022-12-18T21:47:13;41.83;;;14.48;;
23015;SDS011;11674;52.428;13.584;2022-12-18T21:52:21;44.22;;;14.82;;
23015;SDS011;11674;52.428;13.584;2022-12-18T21:57:28;43.70;;;16.42;;
23015;SDS011;11674;52.428;13.584;2022-12-18T22:02:35;40.17;;;14.70;;
23015;SDS011;11674;52.428;13.584;2022-12-18T22:07:42;39.25;;;15.27;;
23015;SDS011;11674;52.428;13.584;2022-12-18T22:12:49;42.78;;;15.48;;
23015;SDS011;11674;52.428;13.584;2022-12-18T22:18:05;36.38;;;14.63;;
23015;SDS011;11674;52.428;13.584;2022-12-18T22:23:13;39.92;;;14.57;;
23015;SDS011;11674;52.428;13.584;2022-12-18T22:28:28;41.00;;;15.38;;
23015;SDS011;11674;52.428;13.584;2022-12-18T22:33:35;38.45;;;14.90;;
23015;SDS011;11674;52.428;13.584;2022-12-18T22:38:49;36.72;;;14.23;;
23015;SDS011;11674;52.428;13.584;2022-12-18T22:43:56;41.20;;;15.68;;
23015;SDS011;11674;52.428;13.584;2022-12-18T22:49:03;35.08;;;14.27;;
23015;SDS011;11674;52.428;13.584;2022-12-18T22:54:10;37.38;;;14.90;;
23015;SDS011;11674;52.428;13.584;2022-12-18T22:59:24;36.90;;;14.77;;
23015;SDS011;11674;52.428;13.584;2022-12-18T23:04:31;35.20;;;15.35;;
23015;SDS011;11674;52.428;13.584;2022-12-18T23:09:38;38.65;;;14.43;;
23015;SDS011;11674;52.428;13.584;2022-12-18T23:14:45;43.35;;;17.17;;
23015;SDS011;11674;52.428;13.584;2022-12-18T23:19:52;34.58;;;13.75;;
23015;SDS011;11674;52.428;13.584;2022-12-18T23:24:59;34.33;;;13.80;;
23015;SDS011;11674;52.428;13.584;2022-12-18T23:30:06;29.15;;;12.80;;
23015;SDS011;11674;52.428;13.584;2022-12-18T23:35:13;35.40;;;13.00;;
23015;SDS011;11674;52.428;13.584;2022-12-18T23:40:27;31.90;;;13.55;;
23015;SDS011;11674;52.428;13.584;2022-12-18T23:45:38;38.85;;;13.80;;
23015;SDS011;11674;52.428;13.584;2022-12-18T23:50:45;30.70;;;12.63;;
23015;SDS011;11674;52.428;13.584;2022-12-18T23:55:52;34.33;;;12.50;;
